This is the latest recevied weather packets stored in our database for station/object W4TJP. If no packets are shown the sender has not sent any weather packets the latest 1 day(s).
| Time | Temp. | Humidity | Pressure | Rain* | Wind** | Luminosity | Snow |
|---|---|---|---|---|---|---|---|
| 1778027067 | 18.89° C | 61% | 1009.9 hPa | 0 mm | 0.45 m/s, 142° | 0 W/m² | - |
| 1778026763 | 18.89° C | 58% | 1010.1 hPa | 0 mm | 0 m/s | 1 W/m² | - |
| 1778026460 | 18.89° C | 58% | 1010.2 hPa | 0 mm | 0 m/s | 3 W/m² | - |
| 1778026158 | 18.89° C | 57% | 1009.9 hPa | 0 mm | 0 m/s | 6 W/m² | - |
| 1778025855 | 19.44° C | 57% | 1009.7 hPa | 0 mm | 0 m/s | 9 W/m² | - |
| 1778025552 | 19.44° C | 54% | 1009.7 hPa | 0 mm | 0 m/s | 12 W/m² | - |
| 1778025250 | 20° C | 53% | 1009.9 hPa | 0 mm | 0 m/s | 14 W/m² | - |
| 1778024946 | 20° C | 52% | 1009.8 hPa | 0 mm | 0 m/s | 17 W/m² | - |
| 1778024644 | 20° C | 51% | 1009.7 hPa | 0 mm | 0.45 m/s, 170° | 21 W/m² | - |
| 1778024340 | 20.56° C | 49% | 1009.3 hPa | 0 mm | 0.45 m/s, 86° | 33 W/m² | - |
| 1778024038 | 20.56° C | 48% | 1009 hPa | 0 mm | 0 m/s | 29 W/m² | - |
| 1778023735 | 20.56° C | 47% | 1009.3 hPa | 0 mm | 0.89 m/s, 129° | 19 W/m² | - |
| 1778023433 | 20.56° C | 46% | 1009.9 hPa | 0 mm | 0.45 m/s, 168° | 27 W/m² | - |
| 1778023130 | 21.11° C | 47% | 1010.1 hPa | 0 mm | 0.89 m/s, 125° | 37 W/m² | - |
| 1778022827 | 21.11° C | 47% | 1010.4 hPa | 0 mm | 0.45 m/s, 18° | 53 W/m² | - |
| 1778022525 | 21.11° C | 46% | 1010.6 hPa | 0 mm | 0 m/s | 65 W/m² | - |
| 1778022222 | 21.11° C | 46% | 1010.7 hPa | 0 mm | 0 m/s | 51 W/m² | - |
| 1778021919 | 21.67° C | 47% | 1010.6 hPa | 0 mm | 0.45 m/s, 125° | 65 W/m² | - |
| 1778021616 | 21.67° C | 45% | 1010.6 hPa | 0 mm | 0.45 m/s, 157° | 51 W/m² | - |
| 1778021311 | 21.67° C | 44% | 1010.3 hPa | 0 mm | 1.34 m/s, 122° | 69 W/m² | - |
| 1778021009 | 21.67° C | 44% | 1010.5 hPa | 0 mm | 0.45 m/s, 202° | 75 W/m² | - |
| 1778020706 | 21.67° C | 43% | 1010.3 hPa | 0 mm | 0.45 m/s, 150° | 67 W/m² | - |
| 1778020403 | 22.22° C | 43% | 1010.1 hPa | 0 mm | 0 m/s | 70 W/m² | - |
| 1778020099 | 22.22° C | 44% | 1010.2 hPa | 0 mm | 0 m/s | 63 W/m² | - |
| 1778019795 | 22.22° C | 42% | 1010.4 hPa | 0 mm | 0.45 m/s, 155° | 86 W/m² | - |
* Rain latest hour (hover to see other rain measurements)
** Current wind speed in m/s (hover to see current wind gust speed)